createdAt,value
2018-08-04T00:09:07.018Z,13.17
2018-08-04T00:24:11.321Z,14.97
2018-08-04T00:39:15.689Z,14.17
2018-08-04T00:54:19.741Z,17.10
2018-08-04T01:09:23.971Z,16.57
2018-08-04T01:24:28.171Z,18.33
2018-08-04T01:39:32.287Z,22.73
2018-08-04T01:54:36.362Z,25.83
2018-08-04T02:09:40.484Z,24.70
2018-08-04T02:24:44.825Z,23.73
2018-08-04T02:39:49.085Z,20.87
2018-08-04T02:54:53.285Z,22.30
2018-08-04T03:09:57.483Z,29.00
2018-08-04T03:25:01.761Z,29.57
2018-08-04T03:40:06.176Z,28.03
2018-08-04T03:55:10.289Z,28.83
2018-08-04T04:10:14.488Z,22.73
2018-08-04T04:25:18.586Z,24.00
2018-08-04T04:40:23.055Z,18.13
2018-08-04T04:55:27.521Z,14.33
2018-08-04T05:10:31.657Z,16.67
2018-08-04T05:25:37.371Z,16.40
2018-08-04T05:40:41.491Z,16.83
2018-08-04T05:55:45.574Z,18.47
2018-08-04T06:10:49.713Z,18.90
2018-08-04T06:25:54.018Z,14.77
2018-08-04T06:40:58.201Z,12.50
2018-08-04T06:56:02.575Z,11.30
2018-08-04T07:11:06.709Z,6.70
2018-08-04T07:26:11.049Z,8.77
2018-08-04T07:41:15.314Z,7.27
2018-08-04T07:56:19.293Z,10.10
2018-08-04T08:11:23.880Z,5.93
2018-08-04T08:26:27.693Z,5.27
2018-08-04T08:41:31.955Z,8.13
2018-08-04T08:56:36.260Z,6.10
2018-08-04T09:11:40.476Z,5.73
2018-08-04T09:26:44.804Z,9.80
2018-08-04T09:41:48.684Z,6.37
2018-08-04T09:56:53.091Z,6.47
2018-08-04T10:11:57.825Z,6.20
2018-08-04T10:27:01.875Z,4.10
2018-08-04T10:42:06.988Z,6.03
2018-08-04T10:57:11.327Z,4.43
2018-08-04T11:12:15.309Z,7.97
2018-08-04T11:27:19.360Z,6.53
2018-08-04T11:42:23.607Z,4.13
2018-08-04T11:57:27.975Z,6.80
2018-08-04T12:12:32.061Z,5.03
2018-08-04T12:27:36.282Z,5.33
2018-08-04T12:42:40.674Z,13.87
2018-08-04T12:57:45.016Z,4.87
2018-08-04T13:12:49.321Z,8.13
2018-08-04T13:27:54.019Z,5.13
2018-08-04T13:42:58.412Z,5.70
2018-08-04T13:58:02.591Z,5.93
2018-08-04T14:13:06.947Z,6.40
2018-08-04T14:28:11.338Z,7.53
2018-08-04T14:43:15.802Z,9.80
2018-08-04T14:58:19.797Z,9.03
2018-08-04T15:13:24.221Z,6.13
2018-08-04T15:28:28.522Z,8.43
2018-08-04T15:43:33.145Z,4.77
2018-08-04T15:58:37.307Z,11.00
2018-08-04T16:13:41.708Z,10.40
2018-08-04T16:28:46.033Z,4.53
2018-08-04T16:43:49.972Z,9.47
2018-08-04T16:58:53.918Z,11.60
2018-08-04T17:14:29.062Z,6.27
2018-08-04T17:30:02.297Z,13.00
2018-08-04T17:45:36.276Z,7.63
2018-08-04T18:01:10.350Z,5.60
2018-08-04T18:16:45.571Z,7.03
2018-08-04T18:32:19.240Z,6.43
2018-08-04T18:47:53.044Z,9.57
2018-08-04T19:03:27.293Z,6.17
2018-08-04T19:19:02.866Z,5.70
2018-08-04T19:34:36.930Z,6.23
2018-08-04T19:50:11.997Z,4.93
2018-08-04T20:05:45.726Z,11.43
2018-08-04T20:21:20.526Z,6.67
2018-08-04T20:36:55.040Z,9.03
2018-08-04T20:52:29.586Z,8.10
2018-08-04T21:08:03.309Z,5.40
2018-08-04T21:23:37.464Z,5.40
2018-08-04T21:39:13.223Z,5.57
2018-08-04T21:54:48.221Z,5.17
2018-08-04T22:10:22.953Z,9.87
2018-08-04T22:25:57.354Z,5.73
2018-08-04T22:41:30.189Z,6.87
2018-08-04T22:57:04.623Z,6.73
2018-08-04T23:12:40.514Z,7.03
2018-08-04T23:28:14.755Z,7.23
2018-08-04T23:43:50.208Z,7.67
2018-08-04T23:59:25.113Z,10.47
